createdAt,value
2016-07-19T00:01:07.335Z,73.21
2016-07-19T00:16:12.020Z,73.49
2016-07-19T00:31:07.341Z,74.27
2016-07-19T00:46:11.941Z,75.33
2016-07-19T01:01:13.664Z,76.36
2016-07-19T01:16:18.192Z,76.85
2016-07-19T01:31:07.361Z,76.48
2016-07-19T01:46:16.073Z,77.23
2016-07-19T02:01:13.694Z,77.51
2016-07-19T02:16:07.383Z,78.15
2016-07-19T02:31:07.425Z,78.38
2016-07-19T02:46:07.397Z,78.18
2016-07-19T03:01:07.404Z,78.45
2016-07-19T03:16:07.404Z,79.17
2016-07-19T03:31:07.446Z,79.04
2016-07-19T03:46:07.422Z,78.85
2016-07-19T04:01:16.431Z,78.77
2016-07-19T04:16:09.446Z,79.64
2016-07-19T04:31:07.498Z,79.51
2016-07-19T04:46:17.682Z,81.25
2016-07-19T05:01:07.479Z,80.7
2016-07-19T05:16:07.486Z,79.84
2016-07-19T05:31:07.531Z,80.91
2016-07-19T05:46:18.885Z,79.51
2016-07-19T06:01:09.509Z,75.82
2016-07-19T06:16:15.643Z,72.52
2016-07-19T06:31:07.565Z,69.99
2016-07-19T06:46:13.771Z,68.81
2016-07-19T07:01:13.660Z,67.41
2016-07-19T07:16:09.669Z,63.46
2016-07-19T07:31:12.205Z,54.06
2016-07-19T07:46:14.576Z,52.66
2016-07-19T08:01:14.622Z,52.84
2016-07-19T08:16:07.581Z,48.63
2016-07-19T08:31:12.675Z,48.41
2016-07-19T08:46:22.503Z,49.78
2016-07-19T09:01:12.187Z,48.25
2016-07-19T09:16:12.315Z,44.28
2016-07-19T09:31:07.606Z,44.49
2016-07-19T09:46:11.876Z,44.12
2016-07-19T10:01:07.606Z,44.7
2016-07-19T10:16:09.754Z,41.42
2016-07-19T10:31:07.629Z,45.05
2016-07-19T10:46:07.652Z,43.94
2016-07-19T11:01:10.657Z,45.66
2016-07-19T11:16:07.651Z,43.8
2016-07-19T11:31:07.655Z,42.48
2016-07-19T11:46:07.730Z,44.13
2016-07-19T12:01:07.666Z,43.76
2016-07-19T12:16:07.716Z,46.2
2016-07-19T12:31:07.673Z,44.25
2016-07-19T12:46:13.886Z,44.59
2016-07-19T13:01:07.686Z,47.04
2016-07-19T13:16:22.293Z,47.72
2016-07-19T13:31:09.807Z,46.78
2016-07-19T13:46:12.290Z,45.92
2016-07-19T14:01:13.720Z,46.15
2016-07-19T14:16:11.729Z,45.75
2016-07-19T14:31:13.954Z,43.59
2016-07-19T14:46:07.737Z,43.04
2016-07-19T15:01:07.761Z,43.99
2016-07-19T15:16:07.768Z,44.02
2016-07-19T15:31:09.926Z,45.45
2016-07-19T15:46:07.783Z,44.46
2016-07-19T16:01:09.798Z,44.24
2016-07-19T16:16:13.917Z,45.92
2016-07-19T16:31:07.823Z,45.74
2016-07-19T16:46:07.896Z,46.62
2016-07-19T17:01:09.840Z,48.13
2016-07-19T17:16:14.143Z,47.41
2016-07-19T17:31:12.446Z,48.92
2016-07-19T17:46:07.914Z,49.83
2016-07-19T18:01:07.892Z,49.83
2016-07-19T18:16:07.899Z,51.17
2016-07-19T18:31:15.060Z,52.91
2016-07-19T18:46:12.882Z,54.66
2016-07-19T19:01:12.547Z,56.58
2016-07-19T19:16:07.987Z,57.14
2016-07-19T19:31:12.564Z,57.82
2016-07-19T19:46:13.648Z,59.69
2016-07-19T20:01:12.560Z,61.68
2016-07-19T20:16:08.190Z,63.89
2016-07-19T20:31:08.036Z,64.63
2016-07-19T20:46:08.151Z,65.69
2016-07-19T21:01:12.907Z,67.05
2016-07-19T21:16:10.151Z,68.44
2016-07-19T21:31:12.769Z,68.99
2016-07-19T21:46:08.239Z,71.41
2016-07-19T22:01:10.099Z,71.85
2016-07-19T22:16:13.115Z,72.77
2016-07-19T22:31:08.122Z,73
2016-07-19T22:46:08.177Z,74.09
2016-07-19T23:01:08.223Z,74.79
2016-07-19T23:16:15.343Z,76.05
2016-07-19T23:31:08.216Z,77.13
2016-07-19T23:46:08.242Z,77.56
